sensor_id;sensor_type;location;lat;lon;timestamp;P1;durP1;ratioP1;P2;durP2;ratioP2
3643;SDS011;1838;50.742;7.158;2022-09-20T00:01:16;7.83;;;2.57;;
3643;SDS011;1838;50.742;7.158;2022-09-20T00:03:46;2.97;;;1.73;;
3643;SDS011;1838;50.742;7.158;2022-09-20T00:06:14;6.23;;;2.23;;
3643;SDS011;1838;50.742;7.158;2022-09-20T00:08:42;7.60;;;2.10;;
3643;SDS011;1838;50.742;7.158;2022-09-20T00:11:09;3.30;;;2.03;;
3643;SDS011;1838;50.742;7.158;2022-09-20T00:13:39;7.77;;;2.13;;
3643;SDS011;1838;50.742;7.158;2022-09-20T00:16:07;8.10;;;2.20;;
3643;SDS011;1838;50.742;7.158;2022-09-20T00:18:35;8.13;;;3.20;;
3643;SDS011;1838;50.742;7.158;2022-09-20T00:21:01;4.03;;;2.37;;
3643;SDS011;1838;50.742;7.158;2022-09-20T00:23:27;3.97;;;2.23;;
3643;SDS011;1838;50.742;7.158;2022-09-20T00:25:58;5.83;;;2.20;;
3643;SDS011;1838;50.742;7.158;2022-09-20T00:28:25;4.83;;;2.53;;
3643;SDS011;1838;50.742;7.158;2022-09-20T00:30:52;5.43;;;2.00;;
3643;SDS011;1838;50.742;7.158;2022-09-20T00:33:18;5.93;;;2.57;;
3643;SDS011;1838;50.742;7.158;2022-09-20T00:35:44;4.37;;;3.07;;
3643;SDS011;1838;50.742;7.158;2022-09-20T00:38:10;7.60;;;2.27;;
3643;SDS011;1838;50.742;7.158;2022-09-20T00:40:38;6.00;;;2.17;;
3643;SDS011;1838;50.742;7.158;2022-09-20T00:43:04;5.33;;;2.37;;
3643;SDS011;1838;50.742;7.158;2022-09-20T00:45:30;13.13;;;3.60;;
3643;SDS011;1838;50.742;7.158;2022-09-20T00:48:29;6.57;;;2.30;;
3643;SDS011;1838;50.742;7.158;2022-09-20T00:50:56;5.77;;;2.13;;
3643;SDS011;1838;50.742;7.158;2022-09-20T00:53:27;5.90;;;2.53;;
3643;SDS011;1838;50.742;7.158;2022-09-20T00:55:57;6.07;;;2.17;;
3643;SDS011;1838;50.742;7.158;2022-09-20T00:58:26;5.77;;;2.50;;
3643;SDS011;1838;50.742;7.158;2022-09-20T01:00:54;8.77;;;2.13;;
3643;SDS011;1838;50.742;7.158;2022-09-20T01:03:21;8.47;;;3.10;;
3643;SDS011;1838;50.742;7.158;2022-09-20T01:05:50;4.80;;;2.37;;
3643;SDS011;1838;50.742;7.158;2022-09-20T01:08:17;5.40;;;2.50;;
3643;SDS011;1838;50.742;7.158;2022-09-20T01:10:45;9.30;;;3.10;;
3643;SDS011;1838;50.742;7.158;2022-09-20T01:13:11;7.10;;;1.80;;
3643;SDS011;1838;50.742;7.158;2022-09-20T01:15:36;7.47;;;2.27;;
3643;SDS011;1838;50.742;7.158;2022-09-20T01:18:04;6.17;;;2.00;;
3643;SDS011;1838;50.742;7.158;2022-09-20T01:20:37;4.70;;;2.60;;
3643;SDS011;1838;50.742;7.158;2022-09-20T01:25:48;5.70;;;2.47;;
3643;SDS011;1838;50.742;7.158;2022-09-20T01:28:18;5.53;;;2.87;;
3643;SDS011;1838;50.742;7.158;2022-09-20T01:30:54;10.20;;;2.70;;
3643;SDS011;1838;50.742;7.158;2022-09-20T01:36:12;9.73;;;2.67;;
3643;SDS011;1838;50.742;7.158;2022-09-20T01:38:49;5.67;;;2.53;;
3643;SDS011;1838;50.742;7.158;2022-09-20T01:44:11;7.50;;;2.80;;
3643;SDS011;1838;50.742;7.158;2022-09-20T01:47:20;6.20;;;2.70;;
3643;SDS011;1838;50.742;7.158;2022-09-20T01:55:53;4.60;;;2.37;;
3643;SDS011;1838;50.742;7.158;2022-09-20T01:58:44;8.40;;;3.47;;
3643;SDS011;1838;50.742;7.158;2022-09-20T02:06:48;8.70;;;2.63;;
3643;SDS011;1838;50.742;7.158;2022-09-20T02:09:35;6.40;;;2.33;;
3643;SDS011;1838;50.742;7.158;2022-09-20T02:12:32;7.73;;;2.80;;
3643;SDS011;1838;50.742;7.158;2022-09-20T02:20:39;7.70;;;3.20;;
3643;SDS011;1838;50.742;7.158;2022-09-20T02:23:51;5.57;;;2.90;;
3643;SDS011;1838;50.742;7.158;2022-09-20T02:31:32;10.30;;;3.60;;
3643;SDS011;1838;50.742;7.158;2022-09-20T02:42:09;7.83;;;3.20;;
3643;SDS011;1838;50.742;7.158;2022-09-20T02:44:58;5.23;;;3.27;;
3643;SDS011;1838;50.742;7.158;2022-09-20T02:47:32;9.00;;;3.80;;
3643;SDS011;1838;50.742;7.158;2022-09-20T02:55:42;12.57;;;3.43;;
3643;SDS011;1838;50.742;7.158;2022-09-20T03:00:52;11.57;;;4.00;;
3643;SDS011;1838;50.742;7.158;2022-09-20T03:03:35;12.93;;;3.67;;
3643;SDS011;1838;50.742;7.158;2022-09-20T03:09:26;7.80;;;3.20;;
3643;SDS011;1838;50.742;7.158;2022-09-20T03:18:07;8.90;;;4.43;;
3643;SDS011;1838;50.742;7.158;2022-09-20T03:26:19;11.00;;;4.70;;
3643;SDS011;1838;50.742;7.158;2022-09-20T03:34:24;5.90;;;3.50;;
3643;SDS011;1838;50.742;7.158;2022-09-20T03:37:18;12.50;;;3.90;;
3643;SDS011;1838;50.742;7.158;2022-09-20T03:42:51;10.33;;;3.30;;
3643;SDS011;1838;50.742;7.158;2022-09-20T03:45:22;11.70;;;3.17;;
3643;SDS011;1838;50.742;7.158;2022-09-20T03:48:13;7.40;;;3.57;;
3643;SDS011;1838;50.742;7.158;2022-09-20T03:51:02;7.33;;;3.43;;
3643;SDS011;1838;50.742;7.158;2022-09-20T03:53:57;5.53;;;2.97;;
3643;SDS011;1838;50.742;7.158;2022-09-20T04:02:21;8.57;;;2.77;;
3643;SDS011;1838;50.742;7.158;2022-09-20T04:05:08;4.77;;;2.90;;
3643;SDS011;1838;50.742;7.158;2022-09-20T04:10:26;11.30;;;4.00;;
3643;SDS011;1838;50.742;7.158;2022-09-20T04:13:11;11.10;;;3.40;;
3643;SDS011;1838;50.742;7.158;2022-09-20T04:18:48;12.60;;;3.60;;
3643;SDS011;1838;50.742;7.158;2022-09-20T04:21:38;14.70;;;4.07;;
3643;SDS011;1838;50.742;7.158;2022-09-20T04:24:10;12.23;;;3.20;;
3643;SDS011;1838;50.742;7.158;2022-09-20T04:26:47;8.47;;;3.70;;
3643;SDS011;1838;50.742;7.158;2022-09-20T04:31:54;10.10;;;3.03;;
3643;SDS011;1838;50.742;7.158;2022-09-20T04:34:38;9.63;;;3.07;;
3643;SDS011;1838;50.742;7.158;2022-09-20T04:37:35;6.87;;;3.40;;
3643;SDS011;1838;50.742;7.158;2022-09-20T05:00:42;10.33;;;3.73;;
3643;SDS011;1838;50.742;7.158;2022-09-20T05:03:42;7.63;;;3.40;;
3643;SDS011;1838;50.742;7.158;2022-09-20T05:06:37;14.77;;;3.97;;
3643;SDS011;1838;50.742;7.158;2022-09-20T05:28:43;12.77;;;3.50;;
3643;SDS011;1838;50.742;7.158;2022-09-20T05:35:04;14.63;;;3.70;;
3643;SDS011;1838;50.742;7.158;2022-09-20T05:37:53;10.47;;;3.60;;
3643;SDS011;1838;50.742;7.158;2022-09-20T05:40:34;6.73;;;4.03;;
3643;SDS011;1838;50.742;7.158;2022-09-20T05:43:09;11.70;;;3.70;;
3643;SDS011;1838;50.742;7.158;2022-09-20T05:59:58;7.13;;;4.10;;
3643;SDS011;1838;50.742;7.158;2022-09-20T06:02:46;16.93;;;4.67;;
3643;SDS011;1838;50.742;7.158;2022-09-20T06:06:01;5.43;;;3.57;;
3643;SDS011;1838;50.742;7.158;2022-09-20T06:08:13;5.20;;;3.20;;
3643;SDS011;1838;50.742;7.158;2022-09-20T06:11:08;8.43;;;3.87;;
3643;SDS011;1838;50.742;7.158;2022-09-20T06:14:09;14.20;;;4.20;;
3643;SDS011;1838;50.742;7.158;2022-09-20T06:17:06;8.30;;;3.60;;
3643;SDS011;1838;50.742;7.158;2022-09-20T06:19:42;11.60;;;3.77;;
3643;SDS011;1838;50.742;7.158;2022-09-20T06:22:32;9.03;;;4.17;;
3643;SDS011;1838;50.742;7.158;2022-09-20T06:27:44;12.73;;;4.70;;
3643;SDS011;1838;50.742;7.158;2022-09-20T06:30:23;11.47;;;4.23;;
3643;SDS011;1838;50.742;7.158;2022-09-20T06:32:58;8.30;;;4.27;;
3643;SDS011;1838;50.742;7.158;2022-09-20T06:35:31;13.67;;;5.67;;
3643;SDS011;1838;50.742;7.158;2022-09-20T06:38:07;17.83;;;5.13;;
3643;SDS011;1838;50.742;7.158;2022-09-20T06:41:16;11.93;;;4.97;;
3643;SDS011;1838;50.742;7.158;2022-09-20T06:43:52;13.87;;;6.10;;
3643;SDS011;1838;50.742;7.158;2022-09-20T06:46:18;8.83;;;4.70;;
3643;SDS011;1838;50.742;7.158;2022-09-20T06:48:44;15.00;;;6.07;;
3643;SDS011;1838;50.742;7.158;2022-09-20T06:51:11;12.20;;;5.77;;
3643;SDS011;1838;50.742;7.158;2022-09-20T06:53:38;12.97;;;6.00;;
3643;SDS011;1838;50.742;7.158;2022-09-20T06:56:06;14.30;;;6.53;;
3643;SDS011;1838;50.742;7.158;2022-09-20T06:58:36;13.77;;;6.70;;
3643;SDS011;1838;50.742;7.158;2022-09-20T07:01:01;19.07;;;7.50;;
3643;SDS011;1838;50.742;7.158;2022-09-20T07:03:27;10.93;;;7.13;;
3643;SDS011;1838;50.742;7.158;2022-09-20T07:05:52;14.43;;;7.20;;
3643;SDS011;1838;50.742;7.158;2022-09-20T07:08:18;16.70;;;7.30;;
3643;SDS011;1838;50.742;7.158;2022-09-20T07:10:43;16.43;;;6.93;;
3643;SDS011;1838;50.742;7.158;2022-09-20T07:13:09;19.27;;;8.00;;
3643;SDS011;1838;50.742;7.158;2022-09-20T07:15:37;20.30;;;8.23;;
3643;SDS011;1838;50.742;7.158;2022-09-20T07:18:03;14.60;;;7.90;;
3643;SDS011;1838;50.742;7.158;2022-09-20T07:20:29;18.13;;;8.37;;
3643;SDS011;1838;50.742;7.158;2022-09-20T07:22:54;18.07;;;8.30;;
3643;SDS011;1838;50.742;7.158;2022-09-20T07:25:20;15.87;;;8.70;;
3643;SDS011;1838;50.742;7.158;2022-09-20T07:27:46;12.67;;;8.77;;
3643;SDS011;1838;50.742;7.158;2022-09-20T07:30:14;18.70;;;8.80;;
3643;SDS011;1838;50.742;7.158;2022-09-20T07:32:40;17.97;;;9.13;;
3643;SDS011;1838;50.742;7.158;2022-09-20T07:35:07;16.80;;;9.77;;
3643;SDS011;1838;50.742;7.158;2022-09-20T07:37:33;20.33;;;9.20;;
3643;SDS011;1838;50.742;7.158;2022-09-20T07:39:59;17.40;;;10.57;;
3643;SDS011;1838;50.742;7.158;2022-09-20T07:42:25;19.70;;;10.10;;
3643;SDS011;1838;50.742;7.158;2022-09-20T07:44:53;15.20;;;9.50;;
3643;SDS011;1838;50.742;7.158;2022-09-20T07:47:19;16.03;;;10.07;;
3643;SDS011;1838;50.742;7.158;2022-09-20T07:49:46;25.87;;;9.60;;
3643;SDS011;1838;50.742;7.158;2022-09-20T07:52:11;17.90;;;10.00;;
3643;SDS011;1838;50.742;7.158;2022-09-20T07:54:38;17.40;;;10.23;;
3643;SDS011;1838;50.742;7.158;2022-09-20T07:57:04;14.80;;;8.80;;
3643;SDS011;1838;50.742;7.158;2022-09-20T07:59:29;14.90;;;8.23;;
3643;SDS011;1838;50.742;7.158;2022-09-20T08:01:55;16.60;;;8.20;;
3643;SDS011;1838;50.742;7.158;2022-09-20T08:04:22;13.00;;;8.90;;
3643;SDS011;1838;50.742;7.158;2022-09-20T08:06:48;16.07;;;7.60;;
3643;SDS011;1838;50.742;7.158;2022-09-20T08:09:13;14.20;;;7.00;;
3643;SDS011;1838;50.742;7.158;2022-09-20T08:11:40;16.27;;;8.83;;
3643;SDS011;1838;50.742;7.158;2022-09-20T08:14:08;11.20;;;6.90;;
3643;SDS011;1838;50.742;7.158;2022-09-20T08:16:38;10.23;;;6.50;;
3643;SDS011;1838;50.742;7.158;2022-09-20T08:19:05;11.27;;;6.40;;
3643;SDS011;1838;50.742;7.158;2022-09-20T08:21:32;11.53;;;6.00;;
3643;SDS011;1838;50.742;7.158;2022-09-20T08:23:58;12.70;;;5.77;;
3643;SDS011;1838;50.742;7.158;2022-09-20T08:26:26;10.27;;;6.27;;
3643;SDS011;1838;50.742;7.158;2022-09-20T08:28:53;21.10;;;6.80;;
3643;SDS011;1838;50.742;7.158;2022-09-20T08:31:20;12.53;;;6.17;;
3643;SDS011;1838;50.742;7.158;2022-09-20T08:33:48;14.43;;;5.40;;
3643;SDS011;1838;50.742;7.158;2022-09-20T08:36:17;16.93;;;7.43;;
3643;SDS011;1838;50.742;7.158;2022-09-20T08:38:44;18.90;;;6.80;;
3643;SDS011;1838;50.742;7.158;2022-09-20T08:41:13;14.03;;;7.00;;
3643;SDS011;1838;50.742;7.158;2022-09-20T08:43:44;13.73;;;6.27;;
3643;SDS011;1838;50.742;7.158;2022-09-20T08:46:14;22.93;;;7.17;;
3643;SDS011;1838;50.742;7.158;2022-09-20T08:48:42;12.30;;;5.80;;
3643;SDS011;1838;50.742;7.158;2022-09-20T08:51:11;14.10;;;6.00;;
3643;SDS011;1838;50.742;7.158;2022-09-20T08:53:44;19.57;;;6.20;;
3643;SDS011;1838;50.742;7.158;2022-09-20T08:56:19;15.27;;;4.33;;
3643;SDS011;1838;50.742;7.158;2022-09-20T08:58:45;9.33;;;4.50;;
3643;SDS011;1838;50.742;7.158;2022-09-20T09:01:21;14.23;;;3.63;;
3643;SDS011;1838;50.742;7.158;2022-09-20T09:03:49;11.23;;;3.70;;
3643;SDS011;1838;50.742;7.158;2022-09-20T09:06:16;6.83;;;3.70;;
3643;SDS011;1838;50.742;7.158;2022-09-20T09:08:44;11.77;;;3.70;;
3643;SDS011;1838;50.742;7.158;2022-09-20T09:11:16;9.03;;;4.13;;
3643;SDS011;1838;50.742;7.158;2022-09-20T09:16:15;11.13;;;3.17;;
3643;SDS011;1838;50.742;7.158;2022-09-20T09:18:43;4.77;;;2.27;;
3643;SDS011;1838;50.742;7.158;2022-09-20T09:21:20;8.63;;;3.03;;
3643;SDS011;1838;50.742;7.158;2022-09-20T09:26:37;7.30;;;2.70;;
3643;SDS011;1838;50.742;7.158;2022-09-20T09:31:47;4.30;;;2.30;;
3643;SDS011;1838;50.742;7.158;2022-09-20T09:34:23;5.70;;;2.53;;
3643;SDS011;1838;50.742;7.158;2022-09-20T09:36:50;6.87;;;2.17;;
3643;SDS011;1838;50.742;7.158;2022-09-20T09:39:21;10.37;;;3.23;;
3643;SDS011;1838;50.742;7.158;2022-09-20T09:41:50;10.47;;;2.63;;
3643;SDS011;1838;50.742;7.158;2022-09-20T09:44:23;5.37;;;2.17;;
3643;SDS011;1838;50.742;7.158;2022-09-20T09:46:51;9.43;;;2.57;;
3643;SDS011;1838;50.742;7.158;2022-09-20T09:49:18;4.70;;;2.23;;
3643;SDS011;1838;50.742;7.158;2022-09-20T09:54:26;5.20;;;1.70;;
3643;SDS011;1838;50.742;7.158;2022-09-20T10:05:21;6.87;;;1.80;;
3643;SDS011;1838;50.742;7.158;2022-09-20T10:11:13;5.63;;;1.83;;
3643;SDS011;1838;50.742;7.158;2022-09-20T10:14:06;4.70;;;1.63;;
3643;SDS011;1838;50.742;7.158;2022-09-20T10:25:51;6.90;;;1.50;;
3643;SDS011;1838;50.742;7.158;2022-09-20T10:28:33;6.33;;;1.60;;
3643;SDS011;1838;50.742;7.158;2022-09-20T10:31:30;7.13;;;1.37;;
3643;SDS011;1838;50.742;7.158;2022-09-20T10:34:31;9.90;;;1.50;;
3643;SDS011;1838;50.742;7.158;2022-09-20T10:37:33;3.47;;;1.50;;
3643;SDS011;1838;50.742;7.158;2022-09-20T10:42:50;4.47;;;1.70;;
3643;SDS011;1838;50.742;7.158;2022-09-20T10:48:40;7.57;;;1.97;;
3643;SDS011;1838;50.742;7.158;2022-09-20T10:54:23;4.27;;;1.73;;
3643;SDS011;1838;50.742;7.158;2022-09-20T11:02:45;3.80;;;1.50;;
3643;SDS011;1838;50.742;7.158;2022-09-20T11:05:36;5.90;;;1.47;;
3643;SDS011;1838;50.742;7.158;2022-09-20T11:08:09;7.87;;;2.40;;
3643;SDS011;1838;50.742;7.158;2022-09-20T11:10:42;8.90;;;1.83;;
3643;SDS011;1838;50.742;7.158;2022-09-20T11:13:46;8.63;;;2.20;;
3643;SDS011;1838;50.742;7.158;2022-09-20T11:16:17;10.10;;;2.50;;
3643;SDS011;1838;50.742;7.158;2022-09-20T11:26:49;13.30;;;2.50;;
3643;SDS011;1838;50.742;7.158;2022-09-20T11:32:14;6.63;;;2.00;;
3643;SDS011;1838;50.742;7.158;2022-09-20T11:34:54;6.33;;;2.17;;
3643;SDS011;1838;50.742;7.158;2022-09-20T11:37:26;6.77;;;2.67;;
3643;SDS011;1838;50.742;7.158;2022-09-20T11:39:58;7.57;;;2.00;;
3643;SDS011;1838;50.742;7.158;2022-09-20T11:42:32;9.37;;;2.40;;
3643;SDS011;1838;50.742;7.158;2022-09-20T11:45:00;5.60;;;1.70;;
3643;SDS011;1838;50.742;7.158;2022-09-20T11:47:27;3.70;;;1.67;;
3643;SDS011;1838;50.742;7.158;2022-09-20T11:52:46;9.83;;;1.80;;
3643;SDS011;1838;50.742;7.158;2022-09-20T11:58:16;6.67;;;2.40;;
3643;SDS011;1838;50.742;7.158;2022-09-20T12:00:46;5.47;;;1.73;;
3643;SDS011;1838;50.742;7.158;2022-09-20T12:03:34;2.70;;;1.73;;
3643;SDS011;1838;50.742;7.158;2022-09-20T12:06:04;4.80;;;1.83;;
3643;SDS011;1838;50.742;7.158;2022-09-20T12:08:51;5.13;;;1.90;;
3643;SDS011;1838;50.742;7.158;2022-09-20T12:11:25;6.50;;;2.20;;
3643;SDS011;1838;50.742;7.158;2022-09-20T12:13:55;6.30;;;2.33;;
3643;SDS011;1838;50.742;7.158;2022-09-20T12:16:46;6.03;;;1.60;;
3643;SDS011;1838;50.742;7.158;2022-09-20T12:24:24;6.43;;;2.00;;
3643;SDS011;1838;50.742;7.158;2022-09-20T12:26:53;6.93;;;1.97;;
3643;SDS011;1838;50.742;7.158;2022-09-20T12:31:50;6.67;;;2.20;;
3643;SDS011;1838;50.742;7.158;2022-09-20T12:39:28;3.63;;;2.03;;
3643;SDS011;1838;50.742;7.158;2022-09-20T12:41:58;3.53;;;1.50;;
3643;SDS011;1838;50.742;7.158;2022-09-20T12:44:42;4.23;;;1.70;;
3643;SDS011;1838;50.742;7.158;2022-09-20T12:47:24;7.50;;;2.07;;
3643;SDS011;1838;50.742;7.158;2022-09-20T12:49:53;6.17;;;2.17;;
3643;SDS011;1838;50.742;7.158;2022-09-20T12:58:33;8.30;;;2.10;;
3643;SDS011;1838;50.742;7.158;2022-09-20T13:11:36;4.87;;;2.10;;
3643;SDS011;1838;50.742;7.158;2022-09-20T13:14:17;4.70;;;1.73;;
3643;SDS011;1838;50.742;7.158;2022-09-20T13:19:24;13.00;;;1.90;;
3643;SDS011;1838;50.742;7.158;2022-09-20T13:22:00;9.50;;;2.07;;
3643;SDS011;1838;50.742;7.158;2022-09-20T13:24:32;2.87;;;1.40;;
3643;SDS011;1838;50.742;7.158;2022-09-20T13:27:06;3.80;;;1.37;;
3643;SDS011;1838;50.742;7.158;2022-09-20T13:29:39;2.00;;;1.10;;
3643;SDS011;1838;50.742;7.158;2022-09-20T13:32:22;4.23;;;1.80;;
3643;SDS011;1838;50.742;7.158;2022-09-20T13:37:33;3.03;;;1.00;;
3643;SDS011;1838;50.742;7.158;2022-09-20T13:40:01;3.60;;;1.10;;
3643;SDS011;1838;50.742;7.158;2022-09-20T13:42:30;2.00;;;1.20;;
3643;SDS011;1838;50.742;7.158;2022-09-20T13:44:59;1.83;;;0.90;;
3643;SDS011;1838;50.742;7.158;2022-09-20T13:47:28;4.73;;;1.10;;
3643;SDS011;1838;50.742;7.158;2022-09-20T13:49:59;2.47;;;0.80;;
3643;SDS011;1838;50.742;7.158;2022-09-20T13:52:28;2.73;;;1.10;;
3643;SDS011;1838;50.742;7.158;2022-09-20T13:54:55;3.93;;;1.20;;
3643;SDS011;1838;50.742;7.158;2022-09-20T13:57:22;3.30;;;1.00;;
3643;SDS011;1838;50.742;7.158;2022-09-20T13:59:51;3.10;;;1.00;;
3643;SDS011;1838;50.742;7.158;2022-09-20T14:04:46;4.70;;;1.23;;
3643;SDS011;1838;50.742;7.158;2022-09-20T14:07:14;3.90;;;1.70;;
3643;SDS011;1838;50.742;7.158;2022-09-20T14:09:41;6.10;;;1.13;;
3643;SDS011;1838;50.742;7.158;2022-09-20T14:12:09;3.00;;;1.20;;
3643;SDS011;1838;50.742;7.158;2022-09-20T14:14:36;7.13;;;1.20;;
3643;SDS011;1838;50.742;7.158;2022-09-20T14:17:03;5.10;;;1.73;;
3643;SDS011;1838;50.742;7.158;2022-09-20T14:19:33;5.83;;;1.47;;
3643;SDS011;1838;50.742;7.158;2022-09-20T14:22:04;8.30;;;3.10;;
3643;SDS011;1838;50.742;7.158;2022-09-20T14:24:31;9.33;;;2.30;;
3643;SDS011;1838;50.742;7.158;2022-09-20T14:27:01;4.97;;;1.67;;
3643;SDS011;1838;50.742;7.158;2022-09-20T14:29:37;7.07;;;2.00;;
3643;SDS011;1838;50.742;7.158;2022-09-20T14:32:06;3.80;;;1.50;;
3643;SDS011;1838;50.742;7.158;2022-09-20T14:34:57;4.20;;;2.10;;
3643;SDS011;1838;50.742;7.158;2022-09-20T14:40:16;13.60;;;1.77;;
3643;SDS011;1838;50.742;7.158;2022-09-20T14:42:47;10.50;;;2.10;;
3643;SDS011;1838;50.742;7.158;2022-09-20T14:45:20;6.80;;;1.87;;
3643;SDS011;1838;50.742;7.158;2022-09-20T14:53:40;6.27;;;2.03;;
3643;SDS011;1838;50.742;7.158;2022-09-20T14:56:08;5.10;;;1.20;;
3643;SDS011;1838;50.742;7.158;2022-09-20T15:01:27;3.37;;;1.27;;
3643;SDS011;1838;50.742;7.158;2022-09-20T15:03:53;3.57;;;1.27;;
3643;SDS011;1838;50.742;7.158;2022-09-20T15:06:21;5.70;;;1.90;;
3643;SDS011;1838;50.742;7.158;2022-09-20T15:08:46;3.30;;;1.23;;
3643;SDS011;1838;50.742;7.158;2022-09-20T15:11:12;2.10;;;0.97;;
3643;SDS011;1838;50.742;7.158;2022-09-20T15:13:39;3.80;;;1.63;;
3643;SDS011;1838;50.742;7.158;2022-09-20T15:16:05;3.47;;;1.10;;
3643;SDS011;1838;50.742;7.158;2022-09-20T15:18:32;2.60;;;1.67;;
3643;SDS011;1838;50.742;7.158;2022-09-20T15:21:06;7.33;;;1.40;;
3643;SDS011;1838;50.742;7.158;2022-09-20T15:23:33;3.40;;;1.00;;
3643;SDS011;1838;50.742;7.158;2022-09-20T15:26:00;5.07;;;1.27;;
3643;SDS011;1838;50.742;7.158;2022-09-20T15:28:25;5.03;;;1.63;;
3643;SDS011;1838;50.742;7.158;2022-09-20T15:30:51;4.60;;;1.47;;
3643;SDS011;1838;50.742;7.158;2022-09-20T15:33:18;4.83;;;1.50;;
3643;SDS011;1838;50.742;7.158;2022-09-20T15:35:45;6.17;;;2.67;;
3643;SDS011;1838;50.742;7.158;2022-09-20T15:38:11;6.80;;;1.53;;
3643;SDS011;1838;50.742;7.158;2022-09-20T15:40:41;2.67;;;1.20;;
3643;SDS011;1838;50.742;7.158;2022-09-20T15:43:11;6.53;;;1.27;;
3643;SDS011;1838;50.742;7.158;2022-09-20T15:45:45;1.87;;;1.20;;
3643;SDS011;1838;50.742;7.158;2022-09-20T15:48:19;2.00;;;1.10;;
3643;SDS011;1838;50.742;7.158;2022-09-20T15:51:02;3.50;;;1.30;;
3643;SDS011;1838;50.742;7.158;2022-09-20T15:55:59;8.30;;;2.13;;
3643;SDS011;1838;50.742;7.158;2022-09-20T15:58:29;5.33;;;1.30;;
3643;SDS011;1838;50.742;7.158;2022-09-20T16:01:04;4.23;;;1.40;;
3643;SDS011;1838;50.742;7.158;2022-09-20T16:03:31;2.73;;;1.20;;
3643;SDS011;1838;50.742;7.158;2022-09-20T16:06:01;3.30;;;1.30;;
3643;SDS011;1838;50.742;7.158;2022-09-20T16:08:32;2.73;;;1.20;;
3643;SDS011;1838;50.742;7.158;2022-09-20T16:10:59;5.60;;;1.23;;
3643;SDS011;1838;50.742;7.158;2022-09-20T16:13:25;7.07;;;1.93;;
3643;SDS011;1838;50.742;7.158;2022-09-20T16:15:52;4.40;;;1.40;;
3643;SDS011;1838;50.742;7.158;2022-09-20T16:18:22;4.07;;;1.60;;
3643;SDS011;1838;50.742;7.158;2022-09-20T16:21:10;4.30;;;1.60;;
3643;SDS011;1838;50.742;7.158;2022-09-20T16:23:38;3.00;;;1.53;;
3643;SDS011;1838;50.742;7.158;2022-09-20T16:26:04;4.60;;;1.90;;
3643;SDS011;1838;50.742;7.158;2022-09-20T16:28:30;4.17;;;1.30;;
3643;SDS011;1838;50.742;7.158;2022-09-20T16:30:57;3.90;;;1.50;;
3643;SDS011;1838;50.742;7.158;2022-09-20T16:33:23;5.50;;;1.50;;
3643;SDS011;1838;50.742;7.158;2022-09-20T16:35:49;4.70;;;1.63;;
3643;SDS011;1838;50.742;7.158;2022-09-20T16:38:15;6.63;;;2.10;;
3643;SDS011;1838;50.742;7.158;2022-09-20T16:40:41;2.00;;;1.30;;
3643;SDS011;1838;50.742;7.158;2022-09-20T16:43:06;4.83;;;1.57;;
3643;SDS011;1838;50.742;7.158;2022-09-20T16:45:33;2.40;;;1.40;;
3643;SDS011;1838;50.742;7.158;2022-09-20T16:47:59;5.37;;;1.50;;
3643;SDS011;1838;50.742;7.158;2022-09-20T16:50:26;3.60;;;1.70;;
3643;SDS011;1838;50.742;7.158;2022-09-20T16:52:52;2.50;;;1.50;;
3643;SDS011;1838;50.742;7.158;2022-09-20T16:55:17;4.80;;;1.63;;
3643;SDS011;1838;50.742;7.158;2022-09-20T16:57:47;6.20;;;1.50;;
3643;SDS011;1838;50.742;7.158;2022-09-20T17:00:13;4.45;;;2.20;;
3643;SDS011;1838;50.742;7.158;2022-09-20T17:02:40;4.20;;;2.00;;
3643;SDS011;1838;50.742;7.158;2022-09-20T17:05:06;12.50;;;2.97;;
3643;SDS011;1838;50.742;7.158;2022-09-20T17:07:32;3.00;;;1.73;;
3643;SDS011;1838;50.742;7.158;2022-09-20T17:09:58;7.27;;;2.13;;
3643;SDS011;1838;50.742;7.158;2022-09-20T17:12:25;4.57;;;2.10;;
3643;SDS011;1838;50.742;7.158;2022-09-20T17:14:56;3.77;;;1.60;;
3643;SDS011;1838;50.742;7.158;2022-09-20T17:17:22;5.57;;;1.90;;
3643;SDS011;1838;50.742;7.158;2022-09-20T17:19:47;6.53;;;2.03;;
3643;SDS011;1838;50.742;7.158;2022-09-20T17:22:13;6.17;;;1.60;;
3643;SDS011;1838;50.742;7.158;2022-09-20T17:24:39;7.57;;;2.57;;
3643;SDS011;1838;50.742;7.158;2022-09-20T17:27:04;9.43;;;2.47;;
3643;SDS011;1838;50.742;7.158;2022-09-20T17:29:30;4.20;;;2.10;;
3643;SDS011;1838;50.742;7.158;2022-09-20T17:31:56;2.90;;;1.50;;
3643;SDS011;1838;50.742;7.158;2022-09-20T17:34:24;6.07;;;2.60;;
3643;SDS011;1838;50.742;7.158;2022-09-20T17:36:52;9.13;;;2.87;;
3643;SDS011;1838;50.742;7.158;2022-09-20T17:39:21;4.60;;;2.50;;
3643;SDS011;1838;50.742;7.158;2022-09-20T17:41:47;3.63;;;2.47;;
3643;SDS011;1838;50.742;7.158;2022-09-20T17:44:14;5.10;;;3.30;;
3643;SDS011;1838;50.742;7.158;2022-09-20T17:46:41;9.47;;;2.67;;
3643;SDS011;1838;50.742;7.158;2022-09-20T17:49:12;8.03;;;2.80;;
3643;SDS011;1838;50.742;7.158;2022-09-20T17:51:40;3.50;;;2.50;;
3643;SDS011;1838;50.742;7.158;2022-09-20T17:54:10;5.43;;;2.60;;
3643;SDS011;1838;50.742;7.158;2022-09-20T17:56:37;6.73;;;3.73;;
3643;SDS011;1838;50.742;7.158;2022-09-20T17:59:06;4.40;;;2.70;;
3643;SDS011;1838;50.742;7.158;2022-09-20T18:01:34;8.13;;;2.87;;
3643;SDS011;1838;50.742;7.158;2022-09-20T18:04:01;4.10;;;2.13;;
3643;SDS011;1838;50.742;7.158;2022-09-20T18:06:29;12.17;;;3.73;;
3643;SDS011;1838;50.742;7.158;2022-09-20T18:08:57;4.53;;;2.30;;
3643;SDS011;1838;50.742;7.158;2022-09-20T18:11:27;7.07;;;3.10;;
3643;SDS011;1838;50.742;7.158;2022-09-20T18:13:55;4.83;;;2.90;;
3643;SDS011;1838;50.742;7.158;2022-09-20T18:16:21;6.63;;;2.70;;
3643;SDS011;1838;50.742;7.158;2022-09-20T18:18:47;7.33;;;3.30;;
3643;SDS011;1838;50.742;7.158;2022-09-20T18:21:15;7.20;;;2.93;;
3643;SDS011;1838;50.742;7.158;2022-09-20T18:23:43;8.27;;;2.30;;
3643;SDS011;1838;50.742;7.158;2022-09-20T18:26:10;9.77;;;2.50;;
3643;SDS011;1838;50.742;7.158;2022-09-20T18:28:49;9.20;;;3.37;;
3643;SDS011;1838;50.742;7.158;2022-09-20T18:31:15;9.87;;;3.10;;
3643;SDS011;1838;50.742;7.158;2022-09-20T18:33:42;10.97;;;4.17;;
3643;SDS011;1838;50.742;7.158;2022-09-20T18:36:08;11.63;;;2.73;;
3643;SDS011;1838;50.742;7.158;2022-09-20T18:38:34;8.90;;;3.00;;
3643;SDS011;1838;50.742;7.158;2022-09-20T18:41:00;6.00;;;2.80;;
3643;SDS011;1838;50.742;7.158;2022-09-20T18:43:27;5.10;;;2.37;;
3643;SDS011;1838;50.742;7.158;2022-09-20T18:45:54;6.37;;;2.53;;
3643;SDS011;1838;50.742;7.158;2022-09-20T18:48:23;6.03;;;2.90;;
3643;SDS011;1838;50.742;7.158;2022-09-20T18:51:01;9.27;;;3.07;;
3643;SDS011;1838;50.742;7.158;2022-09-20T18:53:28;7.93;;;4.30;;
3643;SDS011;1838;50.742;7.158;2022-09-20T18:56:06;12.57;;;4.23;;
3643;SDS011;1838;50.742;7.158;2022-09-20T18:58:43;8.63;;;3.00;;
3643;SDS011;1838;50.742;7.158;2022-09-20T19:04:01;8.50;;;4.53;;
3643;SDS011;1838;50.742;7.158;2022-09-20T19:06:42;11.33;;;5.20;;
3643;SDS011;1838;50.742;7.158;2022-09-20T19:09:23;18.10;;;5.80;;
3643;SDS011;1838;50.742;7.158;2022-09-20T19:11:58;11.23;;;4.33;;
3643;SDS011;1838;50.742;7.158;2022-09-20T19:14:29;12.60;;;4.30;;
3643;SDS011;1838;50.742;7.158;2022-09-20T19:17:05;14.37;;;5.63;;
3643;SDS011;1838;50.742;7.158;2022-09-20T19:19:48;12.97;;;5.90;;
3643;SDS011;1838;50.742;7.158;2022-09-20T19:22:39;6.50;;;4.73;;
3643;SDS011;1838;50.742;7.158;2022-09-20T19:28:04;6.80;;;4.23;;
3643;SDS011;1838;50.742;7.158;2022-09-20T19:30:32;10.00;;;3.30;;
3643;SDS011;1838;50.742;7.158;2022-09-20T19:32:58;5.20;;;3.23;;
3643;SDS011;1838;50.742;7.158;2022-09-20T19:35:27;7.30;;;2.47;;
3643;SDS011;1838;50.742;7.158;2022-09-20T19:38:08;6.93;;;2.87;;
3643;SDS011;1838;50.742;7.158;2022-09-20T19:43:43;6.73;;;3.20;;
3643;SDS011;1838;50.742;7.158;2022-09-20T19:46:37;15.73;;;4.17;;
3643;SDS011;1838;50.742;7.158;2022-09-20T19:51:39;4.93;;;3.80;;
3643;SDS011;1838;50.742;7.158;2022-09-20T19:54:08;8.83;;;3.60;;
3643;SDS011;1838;50.742;7.158;2022-09-20T19:56:52;4.50;;;3.20;;
3643;SDS011;1838;50.742;7.158;2022-09-20T19:59:24;6.10;;;3.03;;
3643;SDS011;1838;50.742;7.158;2022-09-20T20:01:51;8.60;;;3.37;;
3643;SDS011;1838;50.742;7.158;2022-09-20T20:04:18;4.97;;;2.60;;
3643;SDS011;1838;50.742;7.158;2022-09-20T20:09:24;4.33;;;3.10;;
3643;SDS011;1838;50.742;7.158;2022-09-20T20:20:47;6.53;;;3.40;;
3643;SDS011;1838;50.742;7.158;2022-09-20T20:23:33;8.77;;;4.10;;